Time;durP1;ratioP1;P1;durP2;ratioP2;P2;SDS_P1;SDS_P2;PMS_P1;PMS_P2;Temp;Humidity;BMP_temperature;BMP_pressure;BME280_temperature;BME280_humidity;BME280_pressure;Samples;Min_cycle;Max_cycle;Signal;HPM_P1;HPM_P2
2022/05/02 00:01:05;;;;;;;;;;;;;;;13.35;57.96;98114.31;4977658;28;19992;-55
2022/05/02 00:03:33;;;;;;;;;;;;;;;13.44;57.69;98123.28;4975319;28;19934;-57
2022/05/02 00:09:19;;;;;;;;;;;;;;;13.50;57.41;98119.25;4981196;28;19922;-57
2022/05/02 00:11:48;;;;;;;;;;;;;;;13.58;57.75;98113.00;4980560;28;19976;-56
2022/05/02 00:14:16;;;;;;;;;;;;;;;13.57;57.65;98108.63;4976535;28;20485;-57
2022/05/02 00:16:44;;;;;;;;;;;;;;;13.55;57.69;98108.16;4980580;28;20362;-58
2022/05/02 00:19:12;;;;;;;;;;;;;;;13.57;58.06;98111.38;4981518;28;20366;-55
2022/05/02 00:21:40;;;;;;;;;;;;;;;13.55;58.17;98102.72;4978526;28;20251;-55
2022/05/02 00:24:08;;;;;;;;;;;;;;;13.60;58.09;98104.47;4977459;28;19922;-55
2022/05/02 00:26:37;;;;;;;;;;;;;;;13.51;58.46;98104.47;4973733;28;19921;-57
2022/05/02 00:29:06;;;;;;;;;;;;;;;13.48;58.72;98096.16;4976290;28;19984;-55
2022/05/02 00:31:34;;;;;;;;;;;;;;;13.45;58.86;98097.59;4976005;28;19958;-54
2022/05/02 00:34:02;;;;;;;;;;;;;;;13.42;58.66;98095.50;4973754;28;19977;-56
2022/05/02 00:36:30;;;;;;;;;;;;;;;13.43;58.80;98102.59;4976366;28;19993;-55
2022/05/02 00:38:59;;;;;;;;;;;;;;;13.47;58.75;98092.59;4977397;28;20355;-55
2022/05/02 00:41:27;;;;;;;;;;;;;;;13.52;59.05;98091.63;4978005;28;19922;-57
2022/05/02 00:43:54;;;;;;;;;;;;;;;13.47;59.90;98087.16;4976446;28;19972;-57
2022/05/02 00:46:24;;;;;;;;;;;;;;;13.51;59.98;98085.38;4974838;28;20417;-54
2022/05/02 00:48:55;;;;;;;;;;;;;;;13.45;60.25;98091.34;4975765;28;20009;-55
2022/05/02 00:51:23;;;;;;;;;;;;;;;13.36;60.52;98092.16;4979749;28;19929;-52
2022/05/02 00:53:51;;;;;;;;;;;;;;;13.35;60.63;98087.03;4977262;28;19926;-55
2022/05/02 00:56:20;;;;;;;;;;;;;;;13.30;60.90;98095.38;4977432;28;19929;-55
2022/05/02 00:58:50;;;;;;;;;;;;;;;13.27;61.09;98091.38;4973520;28;19949;-55
2022/05/02 01:01:19;;;;;;;;;;;;;;;13.20;60.95;98085.56;4975905;28;20009;-55
2022/05/02 01:03:49;;;;;;;;;;;;;;;13.18;60.80;98087.84;4978713;28;19954;-57
2022/05/02 01:09:10;;;;;;;;;;;;;;;13.16;61.14;98092.03;4969262;28;19930;-54
2022/05/02 01:11:38;;;;;;;;;;;;;;;13.18;61.01;98087.03;4957033;28;19930;-57
2022/05/02 01:14:08;;;;;;;;;;;;;;;13.18;61.21;98078.84;4956961;28;20436;-57
2022/05/02 01:16:36;;;;;;;;;;;;;;;13.12;61.02;98080.94;4954175;28;19949;-57
2022/05/02 01:19:06;;;;;;;;;;;;;;;13.08;61.39;98075.34;4955540;28;20016;-55
2022/05/02 01:21:36;;;;;;;;;;;;;;;13.05;61.48;98076.00;4953525;28;20013;-57
2022/05/02 01:24:04;;;;;;;;;;;;;;;13.02;61.74;98064.94;4954244;28;19935;-57
2022/05/02 01:26:32;;;;;;;;;;;;;;;12.96;62.23;98075.19;4955332;28;20029;-57
2022/05/02 01:29:01;;;;;;;;;;;;;;;12.95;62.58;98073.59;4959179;28;19926;-57
2022/05/02 01:31:28;;;;;;;;;;;;;;;12.81;62.99;98067.50;4955418;28;19922;-56
2022/05/02 01:33:57;;;;;;;;;;;;;;;12.74;62.96;98068.00;4956659;28;19922;-57
2022/05/02 01:36:25;;;;;;;;;;;;;;;12.72;63.44;98061.25;4955389;28;19930;-57
2022/05/02 01:38:54;;;;;;;;;;;;;;;12.70;63.42;98055.34;4956285;28;19933;-56
2022/05/02 01:41:22;;;;;;;;;;;;;;;12.66;63.40;98055.16;4956326;28;19930;-52
2022/05/02 01:43:51;;;;;;;;;;;;;;;12.62;63.62;98056.91;4956807;28;20351;-58
2022/05/02 01:46:19;;;;;;;;;;;;;;;12.67;63.46;98059.47;4957773;28;20315;-58
2022/05/02 01:48:46;;;;;;;;;;;;;;;12.67;63.62;98055.97;4958036;28;19922;-57
2022/05/02 01:51:14;;;;;;;;;;;;;;;12.74;63.48;98057.09;4955668;28;19926;-57
2022/05/02 01:53:43;;;;;;;;;;;;;;;12.92;62.52;98057.06;4952392;28;20602;-56
2022/05/02 01:56:14;;;;;;;;;;;;;;;12.88;62.48;98056.09;4956101;28;20334;-57
2022/05/02 01:58:41;;;;;;;;;;;;;;;12.86;62.32;98053.72;4955646;28;19923;-56
2022/05/02 02:01:11;;;;;;;;;;;;;;;12.84;62.13;98056.78;4959040;28;20339;-55
2022/05/02 02:03:39;;;;;;;;;;;;;;;12.88;62.33;98054.19;4956508;28;20379;-57
2022/05/02 02:06:30;;;;;;;;;;;;;;;12.85;62.53;98052.13;4956057;28;20018;-57
2022/05/02 02:08:59;;;;;;;;;;;;;;;12.86;62.46;98061.91;4961484;28;20387;-57
2022/05/02 02:11:28;;;;;;;;;;;;;;;12.83;63.07;98057.88;4975369;28;19922;-57
2022/05/02 02:13:57;;;;;;;;;;;;;;;12.79;63.03;98059.66;4974965;28;19973;-57
2022/05/02 02:16:26;;;;;;;;;;;;;;;12.76;63.36;98051.31;4976297;28;19934;-57
2022/05/02 02:18:55;;;;;;;;;;;;;;;12.75;63.09;98055.16;4976528;28;19936;-57
2022/05/02 02:21:30;;;;;;;;;;;;;;;12.68;63.40;98052.13;4971245;28;19969;-56
2022/05/02 02:23:58;;;;;;;;;;;;;;;12.58;63.48;98056.78;4973123;28;19923;-56
2022/05/02 02:26:28;;;;;;;;;;;;;;;12.54;63.68;98049.56;4982176;28;20244;-56
2022/05/02 02:28:55;;;;;;;;;;;;;;;12.55;63.63;98051.97;4977970;28;19964;-55
2022/05/02 02:31:23;;;;;;;;;;;;;;;12.57;63.41;98052.47;4974369;28;19972;-55
2022/05/02 02:33:51;;;;;;;;;;;;;;;12.55;63.33;98054.69;4973936;28;19999;-56
2022/05/02 02:36:19;;;;;;;;;;;;;;;12.57;63.32;98041.56;4975773;28;19922;-56
2022/05/02 02:38:47;;;;;;;;;;;;;;;12.42;63.66;98044.75;4967046;28;19933;-56
2022/05/02 02:41:15;;;;;;;;;;;;;;;12.37;63.72;98042.19;4971961;28;19968;-55
2022/05/02 02:43:45;;;;;;;;;;;;;;;12.24;64.06;98043.13;4976763;28;20355;-56
2022/05/02 02:46:12;;;;;;;;;;;;;;;12.33;63.97;98046.66;4977746;28;19930;-56
2022/05/02 02:48:40;;;;;;;;;;;;;;;12.26;64.24;98043.63;4977282;28;19922;-56
2022/05/02 02:51:08;;;;;;;;;;;;;;;12.30;64.31;98050.84;4977099;28;19925;-55
2022/05/02 02:53:36;;;;;;;;;;;;;;;12.31;63.65;98044.25;4979921;28;19922;-56
2022/05/02 02:56:07;;;;;;;;;;;;;;;12.28;63.38;98044.09;4979555;28;19948;-56
2022/05/02 02:58:35;;;;;;;;;;;;;;;12.33;62.89;98043.94;4978662;28;20381;-55
2022/05/02 03:01:06;;;;;;;;;;;;;;;12.29;63.19;98037.50;4977328;28;19930;-56
2022/05/02 03:03:34;;;;;;;;;;;;;;;12.28;63.33;98038.63;4978982;28;19970;-56
2022/05/02 03:06:26;;;;;;;;;;;;;;;12.29;62.92;98035.59;4978084;28;19945;-55
2022/05/02 03:09:18;;;;;;;;;;;;;;;12.35;62.55;98028.06;4980519;28;19928;-56
2022/05/02 03:11:48;;;;;;;;;;;;;;;12.25;62.96;98021.03;4979781;28;19922;-56
2022/05/02 03:14:15;;;;;;;;;;;;;;;12.19;62.38;98022.28;4983047;28;19933;-54
2022/05/02 03:16:46;;;;;;;;;;;;;;;12.16;62.36;98016.69;4979934;28;19973;-56
2022/05/02 03:19:39;;;;;;;;;;;;;;;12.09;62.22;98019.06;4979282;28;19922;-56
2022/05/02 03:22:07;;;;;;;;;;;;;;;12.05;62.56;98018.91;4978766;28;19925;-56
2022/05/02 03:24:35;;;;;;;;;;;;;;;12.05;62.42;98016.19;4971867;28;20290;-56
2022/05/02 03:27:03;;;;;;;;;;;;;;;12.00;62.52;98014.41;4977759;28;19933;-56
2022/05/02 03:29:31;;;;;;;;;;;;;;;11.99;62.31;98020.19;4978204;28;19976;-56
2022/05/02 03:32:00;;;;;;;;;;;;;;;11.98;62.32;98024.81;4976734;28;19929;-56
2022/05/02 03:34:28;;;;;;;;;;;;;;;11.88;62.27;98016.97;4979970;28;19968;-56
2022/05/02 03:37:22;;;;;;;;;;;;;;;11.89;62.50;98017.75;4981449;28;20278;-56
2022/05/02 03:39:49;;;;;;;;;;;;;;;11.80;62.68;98014.97;4981897;28;19929;-56
2022/05/02 03:42:19;;;;;;;;;;;;;;;11.79;62.53;98018.81;4980717;28;19930;-56
2022/05/02 03:44:49;;;;;;;;;;;;;;;11.80;62.62;98015.78;4982538;28;19948;-56
2022/05/02 03:47:18;;;;;;;;;;;;;;;11.77;62.42;98021.03;4976981;28;20319;-55
2022/05/02 03:49:46;;;;;;;;;;;;;;;11.77;62.42;98023.75;4978668;28;20414;-56
2022/05/02 03:55:08;;;;;;;;;;;;;;;11.70;62.79;98015.28;4973119;28;19921;-56
2022/05/02 03:57:36;;;;;;;;;;;;;;;11.70;62.78;98020.72;4981955;28;19922;-56
2022/05/02 04:00:04;;;;;;;;;;;;;;;11.73;62.56;98017.38;4975330;28;19926;-56
2022/05/02 04:02:40;;;;;;;;;;;;;;;11.76;62.27;98014.00;4981916;28;19930;-56
2022/05/02 04:08:01;;;;;;;;;;;;;;;11.66;61.54;98014.28;4978363;28;19984;-52
2022/05/02 04:10:29;;;;;;;;;;;;;;;11.70;61.45;98018.00;4976376;28;19941;-55
2022/05/02 04:13:17;;;;;;;;;;;;;;;11.77;61.00;98012.88;4980781;28;19965;-56
2022/05/02 04:15:46;;;;;;;;;;;;;;;11.75;61.39;98020.56;4976399;28;19925;-56
2022/05/02 04:18:16;;;;;;;;;;;;;;;11.69;61.68;98016.41;4978577;28;19922;-56
2022/05/02 04:20:50;;;;;;;;;;;;;;;11.69;61.87;98017.19;4978717;28;19940;-57
2022/05/02 04:23:18;;;;;;;;;;;;;;;11.63;62.08;98023.91;4976874;28;20016;-57
2022/05/02 04:25:46;;;;;;;;;;;;;;;11.59;62.28;98020.19;4980288;28;20370;-57
2022/05/02 04:28:14;;;;;;;;;;;;;;;11.64;62.08;98019.25;4975779;28;20050;-56
2022/05/02 04:30:43;;;;;;;;;;;;;;;11.65;62.30;98021.66;4976487;28;20425;-57
2022/05/02 04:33:12;;;;;;;;;;;;;;;11.59;62.58;98016.69;4978517;28;19976;-57
2022/05/02 04:35:41;;;;;;;;;;;;;;;11.61;62.54;98034.31;4976913;28;19922;-57
2022/05/02 04:38:09;;;;;;;;;;;;;;;11.66;62.46;98028.69;4976656;28;19922;-57
2022/05/02 04:40:37;;;;;;;;;;;;;;;11.49;62.92;98023.19;4979983;28;20050;-57
2022/05/02 04:43:05;;;;;;;;;;;;;;;11.62;62.61;98026.94;4976892;28;20344;-57
2022/05/02 04:45:33;;;;;;;;;;;;;;;11.67;62.22;98026.81;4980037;28;19969;-57
2022/05/02 04:48:02;;;;;;;;;;;;;;;11.71;61.87;98027.75;4977683;28;19922;-54
2022/05/02 04:50:55;;;;;;;;;;;;;;;11.67;61.99;98029.53;4978843;28;20374;-55
2022/05/02 04:53:23;;;;;;;;;;;;;;;11.73;61.97;98036.44;4975548;28;20495;-55
2022/05/02 04:55:51;;;;;;;;;;;;;;;11.74;61.80;98032.59;4980048;28;19976;-57
2022/05/02 04:58:19;;;;;;;;;;;;;;;11.71;61.76;98025.84;4973160;28;19955;-57
2022/05/02 05:00:48;;;;;;;;;;;;;;;11.81;61.47;98030.19;4976147;28;19930;-55
2022/05/02 05:09:04;;;;;;;;;;;;;;;11.86;61.33;98024.63;4972408;28;19984;-57
2022/05/02 05:11:34;;;;;;;;;;;;;;;11.95;60.53;98024.66;4975208;28;20326;-57
2022/05/02 05:16:56;;;;;;;;;;;;;;;12.15;59.49;98023.25;4973445;28;20004;-58
2022/05/02 05:19:28;;;;;;;;;;;;;;;12.35;59.20;98025.34;4977461;28;19922;-56
2022/05/02 05:22:08;;;;;;;;;;;;;;;12.46;58.84;98025.81;4978987;28;19933;-57
2022/05/02 05:24:58;;;;;;;;;;;;;;;12.59;58.26;98027.59;4973539;28;19926;-57
2022/05/02 05:27:31;;;;;;;;;;;;;;;12.73;57.98;98024.69;4971011;28;19953;-57
2022/05/02 05:30:01;;;;;;;;;;;;;;;12.76;57.83;98032.22;4972590;28;20850;-57
2022/05/02 05:32:36;;;;;;;;;;;;;;;12.91;57.55;98034.47;4969212;28;20381;-53
2022/05/02 05:35:05;;;;;;;;;;;;;;;12.95;57.51;98032.69;4975060;28;19922;-58
2022/05/02 05:37:46;;;;;;;;;;;;;;;13.01;57.25;98039.59;4964851;28;20362;-57
2022/05/02 05:40:16;;;;;;;;;;;;;;;13.06;57.09;98025.78;4976590;28;19926;-58
2022/05/02 05:42:47;;;;;;;;;;;;;;;13.13;56.89;98032.66;4972014;28;19985;-58
2022/05/02 05:45:16;;;;;;;;;;;;;;;13.25;56.62;98033.59;4982432;28;19926;-56
2022/05/02 05:47:52;;;;;;;;;;;;;;;13.17;56.18;98028.16;4974934;28;19956;-58
2022/05/02 05:50:22;;;;;;;;;;;;;;;13.20;55.96;98030.22;4971346;28;19922;-55
2022/05/02 05:53:11;;;;;;;;;;;;;;;13.28;56.30;98032.16;4975964;28;19921;-57
2022/05/02 05:55:46;;;;;;;;;;;;;;;13.39;56.15;98030.69;4971887;28;20649;-57
2022/05/02 05:58:15;;;;;;;;;;;;;;;13.44;55.86;98029.69;4979456;28;19922;-57
2022/05/02 06:00:44;;;;;;;;;;;;;;;13.52;55.55;98032.38;4979329;28;19977;-56
2022/05/02 06:03:13;;;;;;;;;;;;;;;13.58;54.95;98033.81;4977897;28;19988;-58
2022/05/02 06:09:06;;;;;;;;;;;;;;;13.82;54.80;98037.88;4976861;28;19948;-57
2022/05/02 06:11:59;;;;;;;;;;;;;;;13.83;54.35;98039.47;4974752;28;20016;-56
2022/05/02 06:20:25;;;;;;;;;;;;;;;14.07;53.13;98030.69;4979227;28;19972;-57
2022/05/02 06:22:53;;;;;;;;;;;;;;;14.13;53.65;98035.59;4975466;28;19930;-57
2022/05/02 06:25:21;;;;;;;;;;;;;;;14.25;52.96;98036.81;4982107;28;20021;-57
2022/05/02 06:27:49;;;;;;;;;;;;;;;14.31;53.08;98035.47;4979255;28;20130;-58
2022/05/02 06:30:43;;;;;;;;;;;;;;;14.47;52.22;98028.31;4977975;28;19933;-55
2022/05/02 06:33:13;;;;;;;;;;;;;;;14.44;52.44;98034.44;4982342;28;19933;-55
2022/05/02 06:35:46;;;;;;;;;;;;;;;14.44;52.17;98030.91;4981257;28;19977;-55
2022/05/02 06:38:16;;;;;;;;;;;;;;;14.64;51.92;98032.84;4977813;28;19922;-55
2022/05/02 06:40:47;;;;;;;;;;;;;;;14.78;51.09;98032.56;4981821;28;19922;-54
2022/05/02 06:43:17;;;;;;;;;;;;;;;14.85;50.97;98030.09;4985058;28;20363;-56
2022/05/02 06:45:47;;;;;;;;;;;;;;;14.81;50.99;98037.38;4980763;28;19922;-56
2022/05/02 06:48:31;;;;;;;;;;;;;;;15.00;50.31;98034.13;4979008;28;19929;-56
2022/05/02 06:54:07;;;;;;;;;;;;;;;14.99;50.68;98043.47;4980089;28;19973;-57
2022/05/02 06:56:40;;;;;;;;;;;;;;;15.12;50.38;98042.38;4982111;28;19933;-56
2022/05/02 06:59:26;;;;;;;;;;;;;;;15.25;49.89;98032.28;4978834;28;19930;-56
2022/05/02 07:01:58;;;;;;;;;;;;;;;15.40;49.88;98034.34;4982052;28;20463;-56
2022/05/02 07:04:53;;;;;;;;;;;;;;;15.36;49.58;98030.69;4983715;28;19921;-56
2022/05/02 07:07:28;;;;;;;;;;;;;;;15.59;48.91;98026.38;4980096;28;19930;-60
2022/05/02 07:10:03;;;;;;;;;;;;;;;15.64;48.54;98020.72;4980452;28;19926;-50
2022/05/02 07:12:32;;;;;;;;;;;;;;;15.64;49.07;98030.88;4977619;28;19922;-57
2022/05/02 07:15:05;;;;;;;;;;;;;;;15.63;49.25;98027.34;4978550;28;19953;-57
2022/05/02 07:17:38;;;;;;;;;;;;;;;15.76;48.54;98021.84;4979742;28;19922;-57
2022/05/02 07:20:07;;;;;;;;;;;;;;;15.82;48.22;98029.53;4984762;28;19957;-55
2022/05/02 07:22:36;;;;;;;;;;;;;;;15.94;47.74;98017.75;4976105;28;20432;-57
2022/05/02 07:25:09;;;;;;;;;;;;;;;16.00;47.85;98024.59;4977805;28;19926;-56
2022/05/02 07:27:44;;;;;;;;;;;;;;;16.02;47.82;98019.56;4984364;28;19922;-57
2022/05/02 07:30:12;;;;;;;;;;;;;;;16.00;47.77;98018.31;4977261;28;20365;-57
2022/05/02 07:32:40;;;;;;;;;;;;;;;16.16;47.79;98020.00;4979961;28;19977;-57
2022/05/02 07:35:10;;;;;;;;;;;;;;;16.36;47.79;98020.22;4978382;28;20310;-57
2022/05/02 07:37:38;;;;;;;;;;;;;;;16.48;46.81;98025.66;4979198;28;20026;-57
2022/05/02 07:40:07;;;;;;;;;;;;;;;16.48;46.73;98020.97;4978197;28;19937;-56
2022/05/02 07:45:28;;;;;;;;;;;;;;;16.67;46.89;98023.09;4981036;28;19922;-56
2022/05/02 07:47:58;;;;;;;;;;;;;;;16.62;46.53;98025.25;4979942;28;20298;-56
2022/05/02 07:50:28;;;;;;;;;;;;;;;16.62;46.38;98017.00;4979213;28;19934;-56
2022/05/02 07:52:56;;;;;;;;;;;;;;;16.61;46.41;98021.72;4974019;28;19937;-56
2022/05/02 07:55:24;;;;;;;;;;;;;;;16.66;46.86;98018.72;4982026;28;19922;-56
2022/05/02 07:57:55;;;;;;;;;;;;;;;16.74;47.33;98012.34;4979071;28;19928;-50
2022/05/02 08:00:24;;;;;;;;;;;;;;;16.86;46.29;98008.72;4978307;28;19926;-53
2022/05/02 08:02:52;;;;;;;;;;;;;;;17.01;46.05;98013.47;4979576;28;19937;-50
2022/05/02 08:08:19;;;;;;;;;;;;;;;17.07;45.46;98008.50;4978091;28;19996;-52
2022/05/02 08:10:50;;;;;;;;;;;;;;;17.12;45.60;98011.00;4979295;28;20008;-55
2022/05/02 08:13:47;;;;;;;;;;;;;;;17.29;45.12;98018.09;4979920;28;19928;-56
2022/05/02 08:16:19;;;;;;;;;;;;;;;17.33;45.20;98009.97;4975964;28;19969;-54
2022/05/02 08:19:06;;;;;;;;;;;;;;;17.36;44.31;97999.06;4978854;28;20366;-56
2022/05/02 08:21:34;;;;;;;;;;;;;;;17.41;44.63;98000.75;4976296;28;19929;-54
2022/05/02 08:27:19;;;;;;;;;;;;;;;17.65;43.88;97994.28;4976660;28;19929;-55
2022/05/02 08:30:12;;;;;;;;;;;;;;;17.65;43.40;97992.34;4976159;28;20051;-56
2022/05/02 08:32:42;;;;;;;;;;;;;;;17.70;43.31;97994.81;4975724;28;19930;-53
2022/05/02 08:35:11;;;;;;;;;;;;;;;17.97;42.37;97995.88;4972737;28;20369;-56
2022/05/02 08:37:50;;;;;;;;;;;;;;;17.87;42.18;97990.13;4982294;28;19972;-56
2022/05/02 08:40:23;;;;;;;;;;;;;;;17.87;42.97;97995.63;4976345;28;19932;-56
2022/05/02 08:43:01;;;;;;;;;;;;;;;17.94;42.42;97990.28;4981885;28;19952;-56
2022/05/02 08:46:08;;;;;;;;;;;;;;;17.94;42.77;97982.84;4979834;28;19966;-56
2022/05/02 08:48:41;;;;;;;;;;;;;;;17.97;42.68;97984.09;4976674;28;19930;-56
2022/05/02 08:51:28;;;;;;;;;;;;;;;18.01;43.41;97987.72;4974864;28;19922;-56
2022/05/02 08:54:26;;;;;;;;;;;;;;;18.12;43.12;97982.47;4975500;28;20610;-54
2022/05/02 08:57:00;;;;;;;;;;;;;;;18.41;42.25;97975.59;4890248;29;20352;-57
2022/05/02 08:59:42;;;;;;;;;;;;;;;18.58;41.43;97980.66;4957237;28;19922;-55
2022/05/02 09:02:36;;;;;;;;;;;;;;;18.49;41.13;97983.66;4970870;28;19928;-56
2022/05/02 09:05:23;;;;;;;;;;;;;;;18.64;40.60;97979.22;4971277;28;19922;-56
2022/05/02 09:08:09;;;;;;;;;;;;;;;18.55;40.30;97982.19;4977013;28;20314;-55
2022/05/02 09:10:48;;;;;;;;;;;;;;;18.26;40.66;97980.78;4973129;28;19926;-54
2022/05/02 09:13:31;;;;;;;;;;;;;;;18.01;41.59;97974.75;4969980;28;19921;-56
2022/05/02 09:16:07;;;;;;;;;;;;;;;18.10;42.04;97990.25;4970125;28;19930;-54
2022/05/02 09:18:53;;;;;;;;;;;;;;;18.02;42.17;97984.59;4970429;28;20049;-56
2022/05/02 09:21:28;;;;;;;;;;;;;;;18.25;41.63;97984.72;4971486;28;19964;-56
2022/05/02 09:24:03;;;;;;;;;;;;;;;18.42;41.24;97977.19;4970755;28;20036;-56
2022/05/02 09:26:45;;;;;;;;;;;;;;;18.67;40.97;97983.22;4973026;28;19973;-56
2022/05/02 09:29:23;;;;;;;;;;;;;;;18.68;41.18;97980.13;4934294;28;19980;-56
2022/05/02 09:31:56;;;;;;;;;;;;;;;18.67;40.61;97972.19;4970188;28;19968;-56
2022/05/02 09:37:33;;;;;;;;;;;;;;;18.29;40.92;97974.59;4972382;28;19981;-56
2022/05/02 09:40:28;;;;;;;;;;;;;;;18.22;40.92;97970.91;4973851;28;20020;-56
2022/05/02 09:42:58;;;;;;;;;;;;;;;18.13;41.52;97975.78;4971487;28;19934;-55
2022/05/02 09:51:39;;;;;;;;;;;;;;;18.75;39.88;97958.25;4974342;28;19981;-56
2022/05/02 09:54:11;;;;;;;;;;;;;;;19.10;39.83;97971.09;4960481;28;19934;-54
2022/05/02 09:56:39;;;;;;;;;;;;;;;19.20;38.83;97967.72;4975235;28;19937;-57
2022/05/02 09:59:08;;;;;;;;;;;;;;;19.29;38.98;97962.78;4972400;28;19934;-54
2022/05/02 10:01:39;;;;;;;;;;;;;;;19.08;38.95;97967.91;4974594;28;20385;-54
2022/05/02 10:04:18;;;;;;;;;;;;;;;18.75;38.88;97955.50;4974587;28;19934;-56
2022/05/02 10:06:50;;;;;;;;;;;;;;;18.60;39.81;97956.34;4974814;28;19992;-56
2022/05/02 10:09:31;;;;;;;;;;;;;;;18.74;39.26;97959.41;4973955;28;19977;-57
2022/05/02 10:12:04;;;;;;;;;;;;;;;19.17;39.17;97951.94;4974021;28;19932;-56
2022/05/02 10:14:56;;;;;;;;;;;;;;;19.26;38.12;97938.72;4972899;28;19926;-55
2022/05/02 10:17:29;;;;;;;;;;;;;;;19.17;38.75;97940.91;4971392;28;20402;-57
2022/05/02 10:20:04;;;;;;;;;;;;;;;19.28;40.03;97941.09;4971650;28;19935;-56
2022/05/02 10:22:32;;;;;;;;;;;;;;;19.25;39.84;97945.38;4970239;28;20040;-54
2022/05/02 10:25:04;;;;;;;;;;;;;;;19.19;38.97;97938.59;4969309;28;19957;-56
2022/05/02 10:27:35;;;;;;;;;;;;;;;19.16;38.44;97938.53;4972721;28;19934;-56
2022/05/02 10:30:29;;;;;;;;;;;;;;;19.20;39.59;97934.69;4973057;28;20382;-56
2022/05/02 10:33:22;;;;;;;;;;;;;;;19.00;39.17;97941.41;4973735;28;19933;-57
2022/05/02 10:35:52;;;;;;;;;;;;;;;18.97;39.44;97942.94;4974582;28;19930;-57
2022/05/02 10:38:21;;;;;;;;;;;;;;;19.01;39.62;97929.22;4985924;28;20049;-57
2022/05/02 10:40:50;;;;;;;;;;;;;;;19.13;39.13;97937.31;4971014;28;20436;-57
2022/05/02 10:43:22;;;;;;;;;;;;;;;19.13;38.97;97928.28;4969522;28;20265;-56
2022/05/02 10:45:50;;;;;;;;;;;;;;;19.24;38.93;97923.72;4969412;28;19937;-52
2022/05/02 10:48:22;;;;;;;;;;;;;;;19.27;38.44;97926.53;4971466;28;20033;-56
2022/05/02 10:50:55;;;;;;;;;;;;;;;19.48;38.83;97928.03;4970184;28;19969;-55
2022/05/02 10:53:31;;;;;;;;;;;;;;;19.44;38.35;97921.66;4970916;28;19926;-51
2022/05/02 10:56:07;;;;;;;;;;;;;;;19.60;38.35;97919.59;4970094;28;19926;-57
2022/05/02 10:58:35;;;;;;;;;;;;;;;19.63;38.80;97916.91;4975249;28;19962;-53
2022/05/02 11:01:18;;;;;;;;;;;;;;;19.63;37.49;97924.38;4967692;28;19926;-57
2022/05/02 11:03:50;;;;;;;;;;;;;;;19.99;37.61;97919.38;4970858;28;20386;-56
2022/05/02 11:06:42;;;;;;;;;;;;;;;19.91;37.16;97917.69;4972669;28;19934;-56
2022/05/02 11:09:21;;;;;;;;;;;;;;;20.06;36.82;97913.97;4970950;28;19930;-52
2022/05/02 11:11:50;;;;;;;;;;;;;;;20.06;37.38;97900.16;4975043;28;20391;-59
2022/05/02 11:14:25;;;;;;;;;;;;;;;19.96;36.65;97909.09;4976459;28;19930;-55
2022/05/02 11:17:21;;;;;;;;;;;;;;;19.98;36.76;97902.06;4973921;28;20029;-56
2022/05/02 11:22:43;;;;;;;;;;;;;;;19.97;37.13;97905.16;4977793;28;19930;-55
2022/05/02 11:25:17;;;;;;;;;;;;;;;20.03;36.80;97898.97;4972091;28;20037;-55
2022/05/02 11:27:48;;;;;;;;;;;;;;;19.93;36.22;97896.88;4974164;28;19954;-58
2022/05/02 11:30:17;;;;;;;;;;;;;;;19.93;36.40;97896.88;4973953;28;20029;-51
2022/05/02 11:35:54;;;;;;;;;;;;;;;19.71;36.12;97887.50;4971456;28;19934;-54
2022/05/02 11:41:23;;;;;;;;;;;;;;;19.69;37.86;97892.56;4975658;28;20524;-54
2022/05/02 11:43:54;;;;;;;;;;;;;;;19.74;38.48;97888.72;4976550;28;19940;-53
2022/05/02 11:46:26;;;;;;;;;;;;;;;19.80;37.23;97884.47;4974992;28;19930;-55
2022/05/02 11:49:04;;;;;;;;;;;;;;;19.92;37.59;97881.50;4974506;28;20341;-56
2022/05/02 11:51:39;;;;;;;;;;;;;;;20.13;37.14;97878.19;4976463;28;20327;-57
2022/05/02 11:54:08;;;;;;;;;;;;;;;20.46;37.83;97877.44;4976528;28;19933;-54
2022/05/02 11:56:42;;;;;;;;;;;;;;;20.82;36.53;97877.81;4970867;28;20390;-55
2022/05/02 11:59:12;;;;;;;;;;;;;;;20.84;35.68;97875.47;4973404;28;19934;-55
2022/05/02 12:01:42;;;;;;;;;;;;;;;21.05;35.26;97874.88;4974834;28;19965;-55
2022/05/02 12:04:11;;;;;;;;;;;;;;;20.93;35.93;97867.66;4974074;28;20371;-56
2022/05/02 12:09:37;;;;;;;;;;;;;;;20.45;36.00;97875.81;4973735;28;19926;-54
2022/05/02 12:12:10;;;;;;;;;;;;;;;20.34;36.12;97869.38;4975143;28;19926;-55
2022/05/02 12:14:43;;;;;;;;;;;;;;;20.37;36.63;97872.19;4971929;28;20449;-54
2022/05/02 12:17:12;;;;;;;;;;;;;;;20.35;36.34;97874.53;4975829;28;19985;-54
2022/05/02 12:19:40;;;;;;;;;;;;;;;20.40;36.11;97874.22;4988902;28;20018;-55
2022/05/02 12:22:09;;;;;;;;;;;;;;;20.44;35.67;97870.69;4974363;28;20392;-55
2022/05/02 12:24:38;;;;;;;;;;;;;;;20.36;35.61;97867.84;4987639;28;19930;-54
2022/05/02 12:27:07;;;;;;;;;;;;;;;20.41;35.39;97870.28;4981156;28;20314;-55
2022/05/02 12:29:37;;;;;;;;;;;;;;;20.45;36.22;97866.75;4973503;28;20010;-54
2022/05/02 12:32:06;;;;;;;;;;;;;;;20.37;38.09;97871.41;4974448;28;19952;-55
2022/05/02 12:34:38;;;;;;;;;;;;;;;20.53;37.17;97865.69;4976841;28;20440;-54
2022/05/02 12:37:31;;;;;;;;;;;;;;;20.58;36.54;97859.84;4980865;28;20009;-54
2022/05/02 12:42:56;;;;;;;;;;;;;;;20.73;35.83;97858.00;4976089;28;19930;-55
2022/05/02 12:45:26;;;;;;;;;;;;;;;20.57;36.36;97858.25;4976744;28;19932;-55
2022/05/02 12:47:56;;;;;;;;;;;;;;;20.58;36.08;97848.78;4974983;28;20343;-55
2022/05/02 12:50:25;;;;;;;;;;;;;;;20.44;36.14;97848.59;4978821;28;19938;-53
2022/05/02 12:52:55;;;;;;;;;;;;;;;20.50;37.01;97852.63;4975685;28;19988;-51
2022/05/02 12:55:24;;;;;;;;;;;;;;;20.44;36.28;97848.59;4978374;28;19926;-54
2022/05/02 13:00:41;;;;;;;;;;;;;;;20.37;37.00;97841.84;4976928;28;20040;-54
2022/05/02 13:03:17;;;;;;;;;;;;;;;20.39;37.45;97836.72;4979214;28;20368;-55
2022/05/02 13:06:10;;;;;;;;;;;;;;;20.41;36.52;97841.88;4976897;28;20415;-52
2022/05/02 13:09:03;;;;;;;;;;;;;;;20.53;34.92;97844.41;4979908;28;19930;-55
2022/05/02 13:11:36;;;;;;;;;;;;;;;20.05;41.29;97848.94;4977862;28;19926;-59
2022/05/02 13:14:03;;;;;;;;;;;;;;;19.85;43.01;97843.56;4976066;28;19926;-56
2022/05/02 13:16:56;;;;;;;;;;;;;;;19.85;45.27;97832.53;4977095;28;20378;-58
2022/05/02 13:19:34;;;;;;;;;;;;;;;19.68;42.42;97829.56;4973874;28;20291;-57
2022/05/02 13:22:02;;;;;;;;;;;;;;;19.54;44.06;97824.59;4977664;28;19932;-57
2022/05/02 13:24:30;;;;;;;;;;;;;;;19.55;42.96;97823.47;4965083;28;19934;-56
2022/05/02 13:27:08;;;;;;;;;;;;;;;19.53;44.87;97821.06;4970945;28;19930;-56
2022/05/02 13:29:41;;;;;;;;;;;;;;;19.51;43.40;97822.63;4977259;28;19980;-56
2022/05/02 13:32:09;;;;;;;;;;;;;;;19.49;42.73;97824.94;4975859;28;19926;-56
2022/05/02 13:35:03;;;;;;;;;;;;;;;19.42;42.57;97808.31;4970160;28;19926;-53
2022/05/02 13:37:35;;;;;;;;;;;;;;;19.21;40.96;97803.28;4971981;28;19973;-56
2022/05/02 13:43:00;;;;;;;;;;;;;;;19.18;41.55;97815.84;4981397;28;19936;-57
2022/05/02 13:45:32;;;;;;;;;;;;;;;19.17;40.81;97803.22;4980002;28;20378;-55
2022/05/02 13:48:18;;;;;;;;;;;;;;;19.29;41.79;97797.50;4976186;28;19933;-49
2022/05/02 13:50:48;;;;;;;;;;;;;;;19.43;41.13;97799.66;4971685;28;19965;-54
2022/05/02 13:53:26;;;;;;;;;;;;;;;19.56;40.61;97800.25;4974855;28;20020;-55
2022/05/02 13:56:08;;;;;;;;;;;;;;;19.79;40.57;97803.72;4977619;28;20012;-57
2022/05/02 13:58:47;;;;;;;;;;;;;;;19.81;38.11;97804.13;4974684;28;20276;-52
2022/05/02 14:01:29;;;;;;;;;;;;;;;19.97;39.32;97794.88;4972470;28;20018;-56
2022/05/02 14:04:02;;;;;;;;;;;;;;;20.17;36.62;97788.00;4973477;28;20047;-56
2022/05/02 14:07:09;;;;;;;;;;;;;;;20.22;37.35;97797.91;4972311;28;19937;-57
2022/05/02 14:09:41;;;;;;;;;;;;;;;20.24;36.56;97785.34;4974409;28;19929;-57
2022/05/02 14:12:11;;;;;;;;;;;;;;;20.25;36.60;97794.41;4977793;28;19929;-56
2022/05/02 14:14:55;;;;;;;;;;;;;;;20.14;37.40;97788.78;4978638;28;19980;-57
2022/05/02 14:17:26;;;;;;;;;;;;;;;20.09;36.23;97789.13;4977256;28;19934;-52
2022/05/02 14:19:54;;;;;;;;;;;;;;;20.12;36.55;97782.84;4980974;28;19949;-57
2022/05/02 14:22:33;;;;;;;;;;;;;;;19.98;35.54;97779.94;4979177;28;20291;-50
2022/05/02 14:25:02;;;;;;;;;;;;;;;19.83;36.39;97784.47;4978142;28;20397;-57
2022/05/02 14:27:50;;;;;;;;;;;;;;;19.71;37.38;97784.69;4974119;28;19930;-57
2022/05/02 14:30:27;;;;;;;;;;;;;;;19.42;38.41;97795.31;4980514;28;19930;-57